sensor_id;sensor_type;location;lat;lon;timestamp;temperature;humidity
5899;DHT22;2975;50.956;6.962;2023-12-20T00:00:20;8.50;99.90
5899;DHT22;2975;50.956;6.962;2023-12-20T00:02:46;8.50;99.90
5899;DHT22;2975;50.956;6.962;2023-12-20T00:05:13;8.50;99.90
5899;DHT22;2975;50.956;6.962;2023-12-20T00:07:39;8.50;99.90
5899;DHT22;2975;50.956;6.962;2023-12-20T00:10:05;8.50;99.90
5899;DHT22;2975;50.956;6.962;2023-12-20T00:12:31;8.50;99.90
5899;DHT22;2975;50.956;6.962;2023-12-20T00:14:56;8.50;99.90
5899;DHT22;2975;50.956;6.962;2023-12-20T00:17:22;8.50;99.90
5899;DHT22;2975;50.956;6.962;2023-12-20T00:19:47;8.50;99.90
5899;DHT22;2975;50.956;6.962;2023-12-20T00:22:13;8.50;99.90
5899;DHT22;2975;50.956;6.962;2023-12-20T00:24:38;8.50;99.90
5899;DHT22;2975;50.956;6.962;2023-12-20T00:27:04;8.50;99.90
5899;DHT22;2975;50.956;6.962;2023-12-20T00:29:30;8.50;99.90
5899;DHT22;2975;50.956;6.962;2023-12-20T00:31:55;8.50;99.90
5899;DHT22;2975;50.956;6.962;2023-12-20T00:34:21;8.50;99.90
5899;DHT22;2975;50.956;6.962;2023-12-20T00:36:46;8.50;99.90
5899;DHT22;2975;50.956;6.962;2023-12-20T00:39:12;8.40;99.90
5899;DHT22;2975;50.956;6.962;2023-12-20T00:41:38;8.40;99.90
5899;DHT22;2975;50.956;6.962;2023-12-20T00:44:04;8.30;99.90
5899;DHT22;2975;50.956;6.962;2023-12-20T00:46:30;8.30;99.90
5899;DHT22;2975;50.956;6.962;2023-12-20T00:48:56;8.30;99.90
5899;DHT22;2975;50.956;6.962;2023-12-20T00:51:22;8.20;99.90
5899;DHT22;2975;50.956;6.962;2023-12-20T00:53:49;8.20;99.90
5899;DHT22;2975;50.956;6.962;2023-12-20T00:56:14;8.20;99.90
5899;DHT22;2975;50.956;6.962;2023-12-20T00:58:40;8.20;99.90
5899;DHT22;2975;50.956;6.962;2023-12-20T01:01:06;8.20;99.90
5899;DHT22;2975;50.956;6.962;2023-12-20T01:03:31;8.10;99.90
5899;DHT22;2975;50.956;6.962;2023-12-20T01:05:57;8.10;99.90
5899;DHT22;2975;50.956;6.962;2023-12-20T01:08:22;8.10;99.90
5899;DHT22;2975;50.956;6.962;2023-12-20T01:10:48;8.10;99.90
5899;DHT22;2975;50.956;6.962;2023-12-20T01:13:14;8.00;99.90
5899;DHT22;2975;50.956;6.962;2023-12-20T01:15:39;8.00;99.90
5899;DHT22;2975;50.956;6.962;2023-12-20T01:18:05;7.90;99.90
5899;DHT22;2975;50.956;6.962;2023-12-20T01:20:30;7.80;99.90
5899;DHT22;2975;50.956;6.962;2023-12-20T01:22:56;7.70;99.90
5899;DHT22;2975;50.956;6.962;2023-12-20T01:25:22;7.60;99.90
5899;DHT22;2975;50.956;6.962;2023-12-20T01:27:47;7.50;99.90
5899;DHT22;2975;50.956;6.962;2023-12-20T01:30:13;7.40;99.90
5899;DHT22;2975;50.956;6.962;2023-12-20T01:32:39;7.50;99.90
5899;DHT22;2975;50.956;6.962;2023-12-20T01:35:05;7.50;99.90
5899;DHT22;2975;50.956;6.962;2023-12-20T01:37:30;7.40;99.90
5899;DHT22;2975;50.956;6.962;2023-12-20T01:39:56;7.50;99.90
5899;DHT22;2975;50.956;6.962;2023-12-20T01:42:22;7.60;99.90
5899;DHT22;2975;50.956;6.962;2023-12-20T01:44:47;7.60;99.90
5899;DHT22;2975;50.956;6.962;2023-12-20T01:47:13;7.70;99.90
5899;DHT22;2975;50.956;6.962;2023-12-20T01:49:39;7.70;99.90
5899;DHT22;2975;50.956;6.962;2023-12-20T01:52:05;7.80;99.90
5899;DHT22;2975;50.956;6.962;2023-12-20T01:54:31;7.80;99.90
5899;DHT22;2975;50.956;6.962;2023-12-20T01:56:57;7.80;99.90
5899;DHT22;2975;50.956;6.962;2023-12-20T01:59:23;7.80;99.90
5899;DHT22;2975;50.956;6.962;2023-12-20T02:01:49;7.80;99.90
5899;DHT22;2975;50.956;6.962;2023-12-20T02:04:15;7.80;99.90
5899;DHT22;2975;50.956;6.962;2023-12-20T02:06:41;7.70;99.90
5899;DHT22;2975;50.956;6.962;2023-12-20T02:09:08;7.70;99.90
5899;DHT22;2975;50.956;6.962;2023-12-20T02:11:34;7.70;99.90
5899;DHT22;2975;50.956;6.962;2023-12-20T02:14:01;7.60;99.90
5899;DHT22;2975;50.956;6.962;2023-12-20T02:16:27;7.50;99.90
5899;DHT22;2975;50.956;6.962;2023-12-20T02:18:52;7.30;99.90
5899;DHT22;2975;50.956;6.962;2023-12-20T02:21:20;7.20;99.90
5899;DHT22;2975;50.956;6.962;2023-12-20T02:23:45;7.10;99.90
5899;DHT22;2975;50.956;6.962;2023-12-20T02:26:11;7.00;99.90
5899;DHT22;2975;50.956;6.962;2023-12-20T02:28:39;6.80;99.90
5899;DHT22;2975;50.956;6.962;2023-12-20T02:31:04;6.80;99.90
5899;DHT22;2975;50.956;6.962;2023-12-20T02:33:30;6.70;99.90
5899;DHT22;2975;50.956;6.962;2023-12-20T02:35:55;6.60;99.90
5899;DHT22;2975;50.956;6.962;2023-12-20T02:38:21;6.50;99.90
5899;DHT22;2975;50.956;6.962;2023-12-20T02:40:47;6.40;99.90
5899;DHT22;2975;50.956;6.962;2023-12-20T02:43:12;6.50;99.90
5899;DHT22;2975;50.956;6.962;2023-12-20T02:45:38;6.60;99.90
5899;DHT22;2975;50.956;6.962;2023-12-20T02:48:04;6.70;99.90
5899;DHT22;2975;50.956;6.962;2023-12-20T02:50:29;6.70;99.90
5899;DHT22;2975;50.956;6.962;2023-12-20T02:52:55;6.80;99.90
5899;DHT22;2975;50.956;6.962;2023-12-20T02:55:20;6.80;99.90
5899;DHT22;2975;50.956;6.962;2023-12-20T02:57:46;6.80;99.90
5899;DHT22;2975;50.956;6.962;2023-12-20T03:00:12;6.80;99.90
5899;DHT22;2975;50.956;6.962;2023-12-20T03:02:37;6.90;99.90
5899;DHT22;2975;50.956;6.962;2023-12-20T03:05:03;6.90;99.90
5899;DHT22;2975;50.956;6.962;2023-12-20T03:07:29;6.90;99.90
5899;DHT22;2975;50.956;6.962;2023-12-20T03:09:54;6.90;99.90
5899;DHT22;2975;50.956;6.962;2023-12-20T03:12:20;6.90;99.90
5899;DHT22;2975;50.956;6.962;2023-12-20T03:14:46;6.90;99.90
5899;DHT22;2975;50.956;6.962;2023-12-20T03:17:12;6.90;99.90
5899;DHT22;2975;50.956;6.962;2023-12-20T03:19:38;6.90;99.90
5899;DHT22;2975;50.956;6.962;2023-12-20T03:22:03;6.90;99.90
5899;DHT22;2975;50.956;6.962;2023-12-20T03:24:29;7.00;99.90
5899;DHT22;2975;50.956;6.962;2023-12-20T03:26:54;7.00;99.90
5899;DHT22;2975;50.956;6.962;2023-12-20T03:29:20;7.00;99.90
5899;DHT22;2975;50.956;6.962;2023-12-20T03:31:45;7.00;99.90
5899;DHT22;2975;50.956;6.962;2023-12-20T03:34:11;7.10;99.90
5899;DHT22;2975;50.956;6.962;2023-12-20T03:36:37;7.10;99.90
5899;DHT22;2975;50.956;6.962;2023-12-20T03:39:03;7.10;99.90
5899;DHT22;2975;50.956;6.962;2023-12-20T03:41:28;7.10;99.90
5899;DHT22;2975;50.956;6.962;2023-12-20T03:43:54;7.10;99.90
5899;DHT22;2975;50.956;6.962;2023-12-20T03:46:19;7.10;99.90
5899;DHT22;2975;50.956;6.962;2023-12-20T03:48:45;7.10;99.90
5899;DHT22;2975;50.956;6.962;2023-12-20T03:51:11;7.10;99.90
5899;DHT22;2975;50.956;6.962;2023-12-20T03:53:36;7.10;99.90
5899;DHT22;2975;50.956;6.962;2023-12-20T03:56:02;7.00;99.90
5899;DHT22;2975;50.956;6.962;2023-12-20T03:58:27;7.10;99.90
5899;DHT22;2975;50.956;6.962;2023-12-20T04:00:53;7.10;99.90
5899;DHT22;2975;50.956;6.962;2023-12-20T04:03:18;7.00;99.90
5899;DHT22;2975;50.956;6.962;2023-12-20T04:05:44;7.00;99.90
5899;DHT22;2975;50.956;6.962;2023-12-20T04:08:10;7.00;99.90
5899;DHT22;2975;50.956;6.962;2023-12-20T04:10:36;7.00;99.90
5899;DHT22;2975;50.956;6.962;2023-12-20T04:13:03;7.00;99.90
5899;DHT22;2975;50.956;6.962;2023-12-20T04:15:28;7.00;99.90
5899;DHT22;2975;50.956;6.962;2023-12-20T04:17:55;7.00;99.90
5899;DHT22;2975;50.956;6.962;2023-12-20T04:20:22;7.00;99.90
5899;DHT22;2975;50.956;6.962;2023-12-20T04:22:47;7.00;99.90
5899;DHT22;2975;50.956;6.962;2023-12-20T04:25:13;7.00;99.90
5899;DHT22;2975;50.956;6.962;2023-12-20T04:27:38;7.00;99.90
5899;DHT22;2975;50.956;6.962;2023-12-20T04:30:04;7.00;99.90
5899;DHT22;2975;50.956;6.962;2023-12-20T04:32:30;7.00;99.90
5899;DHT22;2975;50.956;6.962;2023-12-20T04:34:57;7.00;99.90
5899;DHT22;2975;50.956;6.962;2023-12-20T04:37:22;7.10;99.90
5899;DHT22;2975;50.956;6.962;2023-12-20T04:39:48;7.00;99.90
5899;DHT22;2975;50.956;6.962;2023-12-20T04:42:13;7.00;99.90
5899;DHT22;2975;50.956;6.962;2023-12-20T04:44:39;7.00;99.90
5899;DHT22;2975;50.956;6.962;2023-12-20T04:47:05;7.00;99.90
5899;DHT22;2975;50.956;6.962;2023-12-20T04:49:30;6.90;99.90
5899;DHT22;2975;50.956;6.962;2023-12-20T04:51:56;6.90;99.90
5899;DHT22;2975;50.956;6.962;2023-12-20T04:54:21;6.90;99.90
5899;DHT22;2975;50.956;6.962;2023-12-20T04:56:47;6.80;99.90
5899;DHT22;2975;50.956;6.962;2023-12-20T04:59:13;6.80;99.90
5899;DHT22;2975;50.956;6.962;2023-12-20T05:01:39;6.90;99.90
5899;DHT22;2975;50.956;6.962;2023-12-20T05:04:04;6.90;99.90
5899;DHT22;2975;50.956;6.962;2023-12-20T05:06:30;6.90;99.90
5899;DHT22;2975;50.956;6.962;2023-12-20T05:08:56;6.90;99.90
5899;DHT22;2975;50.956;6.962;2023-12-20T05:11:21;6.80;99.90
5899;DHT22;2975;50.956;6.962;2023-12-20T05:13:47;6.80;99.90
5899;DHT22;2975;50.956;6.962;2023-12-20T05:16:13;6.70;99.90
5899;DHT22;2975;50.956;6.962;2023-12-20T05:18:39;6.60;99.90
5899;DHT22;2975;50.956;6.962;2023-12-20T05:21:05;6.50;99.90
5899;DHT22;2975;50.956;6.962;2023-12-20T05:23:31;6.40;99.90
5899;DHT22;2975;50.956;6.962;2023-12-20T05:25:56;6.40;99.90
5899;DHT22;2975;50.956;6.962;2023-12-20T05:28:22;6.50;99.90
5899;DHT22;2975;50.956;6.962;2023-12-20T05:30:48;6.50;99.90
5899;DHT22;2975;50.956;6.962;2023-12-20T05:33:13;6.40;99.90
5899;DHT22;2975;50.956;6.962;2023-12-20T05:35:39;6.40;99.90
5899;DHT22;2975;50.956;6.962;2023-12-20T05:38:04;6.50;99.90
5899;DHT22;2975;50.956;6.962;2023-12-20T05:40:30;6.50;99.90
5899;DHT22;2975;50.956;6.962;2023-12-20T05:42:55;6.50;99.90
5899;DHT22;2975;50.956;6.962;2023-12-20T05:45:21;6.50;99.90
5899;DHT22;2975;50.956;6.962;2023-12-20T05:47:46;6.40;99.90
5899;DHT22;2975;50.956;6.962;2023-12-20T05:50:12;6.30;99.90
5899;DHT22;2975;50.956;6.962;2023-12-20T05:52:38;6.40;99.90
5899;DHT22;2975;50.956;6.962;2023-12-20T05:55:03;6.30;99.90
5899;DHT22;2975;50.956;6.962;2023-12-20T05:57:29;6.30;99.90
5899;DHT22;2975;50.956;6.962;2023-12-20T05:59:55;6.40;99.90
5899;DHT22;2975;50.956;6.962;2023-12-20T06:02:20;6.40;99.90
5899;DHT22;2975;50.956;6.962;2023-12-20T06:04:46;6.50;99.90
5899;DHT22;2975;50.956;6.962;2023-12-20T06:07:12;6.50;99.90
5899;DHT22;2975;50.956;6.962;2023-12-20T06:09:38;6.50;99.90
5899;DHT22;2975;50.956;6.962;2023-12-20T06:12:04;6.60;99.90
5899;DHT22;2975;50.956;6.962;2023-12-20T06:14:30;6.60;99.90
5899;DHT22;2975;50.956;6.962;2023-12-20T06:16:57;6.60;99.90
5899;DHT22;2975;50.956;6.962;2023-12-20T06:19:22;6.60;99.90
5899;DHT22;2975;50.956;6.962;2023-12-20T06:21:48;6.60;99.90
5899;DHT22;2975;50.956;6.962;2023-12-20T06:24:14;6.70;99.90
5899;DHT22;2975;50.956;6.962;2023-12-20T06:26:39;6.70;99.90
5899;DHT22;2975;50.956;6.962;2023-12-20T06:29:05;6.80;99.90
5899;DHT22;2975;50.956;6.962;2023-12-20T06:31:30;6.80;99.90
5899;DHT22;2975;50.956;6.962;2023-12-20T06:33:58;6.80;99.90
5899;DHT22;2975;50.956;6.962;2023-12-20T06:36:25;6.80;99.90
5899;DHT22;2975;50.956;6.962;2023-12-20T06:38:51;6.80;99.90
5899;DHT22;2975;50.956;6.962;2023-12-20T06:41:17;6.80;99.90
5899;DHT22;2975;50.956;6.962;2023-12-20T06:43:43;6.90;99.90
5899;DHT22;2975;50.956;6.962;2023-12-20T06:46:08;6.90;99.90
5899;DHT22;2975;50.956;6.962;2023-12-20T06:48:34;6.90;99.90
5899;DHT22;2975;50.956;6.962;2023-12-20T06:51:03;7.00;99.90
5899;DHT22;2975;50.956;6.962;2023-12-20T06:53:28;7.00;99.90
5899;DHT22;2975;50.956;6.962;2023-12-20T06:55:54;7.00;99.90
5899;DHT22;2975;50.956;6.962;2023-12-20T06:58:21;7.00;99.90
5899;DHT22;2975;50.956;6.962;2023-12-20T07:00:47;6.90;99.90
5899;DHT22;2975;50.956;6.962;2023-12-20T07:03:13;7.00;99.90
5899;DHT22;2975;50.956;6.962;2023-12-20T07:05:38;7.00;99.90
5899;DHT22;2975;50.956;6.962;2023-12-20T07:08:04;7.00;99.90
5899;DHT22;2975;50.956;6.962;2023-12-20T07:10:30;7.00;99.90
5899;DHT22;2975;50.956;6.962;2023-12-20T07:12:56;7.10;99.90
5899;DHT22;2975;50.956;6.962;2023-12-20T07:15:22;7.10;99.90
5899;DHT22;2975;50.956;6.962;2023-12-20T07:17:47;7.10;99.90
5899;DHT22;2975;50.956;6.962;2023-12-20T07:20:13;7.10;99.90
5899;DHT22;2975;50.956;6.962;2023-12-20T07:22:38;7.10;99.90
5899;DHT22;2975;50.956;6.962;2023-12-20T07:25:05;7.10;99.90
5899;DHT22;2975;50.956;6.962;2023-12-20T07:27:30;7.10;99.90
5899;DHT22;2975;50.956;6.962;2023-12-20T07:29:56;7.10;99.90
5899;DHT22;2975;50.956;6.962;2023-12-20T07:32:22;7.20;99.90
5899;DHT22;2975;50.956;6.962;2023-12-20T07:34:47;7.20;99.90
5899;DHT22;2975;50.956;6.962;2023-12-20T07:37:13;7.20;99.90
5899;DHT22;2975;50.956;6.962;2023-12-20T07:39:41;7.20;99.90
5899;DHT22;2975;50.956;6.962;2023-12-20T07:42:08;7.20;99.90
5899;DHT22;2975;50.956;6.962;2023-12-20T07:44:33;7.20;99.90
5899;DHT22;2975;50.956;6.962;2023-12-20T07:47:01;7.30;99.90
5899;DHT22;2975;50.956;6.962;2023-12-20T07:49:26;7.20;99.90
5899;DHT22;2975;50.956;6.962;2023-12-20T07:51:52;7.30;99.90
5899;DHT22;2975;50.956;6.962;2023-12-20T07:54:18;7.30;99.90
5899;DHT22;2975;50.956;6.962;2023-12-20T07:56:43;7.30;99.90
5899;DHT22;2975;50.956;6.962;2023-12-20T07:59:09;7.30;99.90
5899;DHT22;2975;50.956;6.962;2023-12-20T08:01:35;7.30;99.90
5899;DHT22;2975;50.956;6.962;2023-12-20T08:04:00;7.30;99.90
5899;DHT22;2975;50.956;6.962;2023-12-20T08:06:26;7.30;99.90
5899;DHT22;2975;50.956;6.962;2023-12-20T08:08:51;7.30;99.90
5899;DHT22;2975;50.956;6.962;2023-12-20T08:11:17;7.30;99.90
5899;DHT22;2975;50.956;6.962;2023-12-20T08:23:49;7.40;99.90
5899;DHT22;2975;50.956;6.962;2023-12-20T08:26:19;7.40;99.90
5899;DHT22;2975;50.956;6.962;2023-12-20T08:28:46;7.40;99.90
5899;DHT22;2975;50.956;6.962;2023-12-20T08:31:15;7.40;99.90
5899;DHT22;2975;50.956;6.962;2023-12-20T08:33:45;7.40;99.90
5899;DHT22;2975;50.956;6.962;2023-12-20T08:36:11;7.50;99.90
5899;DHT22;2975;50.956;6.962;2023-12-20T08:38:36;7.50;99.90
5899;DHT22;2975;50.956;6.962;2023-12-20T08:41:03;7.50;99.90
5899;DHT22;2975;50.956;6.962;2023-12-20T08:43:31;7.50;99.90
5899;DHT22;2975;50.956;6.962;2023-12-20T08:45:57;7.50;99.90
5899;DHT22;2975;50.956;6.962;2023-12-20T08:48:22;7.60;99.90
5899;DHT22;2975;50.956;6.962;2023-12-20T08:50:48;7.60;99.90
5899;DHT22;2975;50.956;6.962;2023-12-20T08:53:15;7.60;99.90
5899;DHT22;2975;50.956;6.962;2023-12-20T08:55:42;7.60;99.90
5899;DHT22;2975;50.956;6.962;2023-12-20T08:58:08;7.60;99.90
5899;DHT22;2975;50.956;6.962;2023-12-20T09:00:34;7.60;99.90
5899;DHT22;2975;50.956;6.962;2023-12-20T09:03:00;7.60;99.90
5899;DHT22;2975;50.956;6.962;2023-12-20T09:05:26;7.60;99.90
5899;DHT22;2975;50.956;6.962;2023-12-20T09:07:52;7.60;99.90
5899;DHT22;2975;50.956;6.962;2023-12-20T09:10:17;7.60;99.90
5899;DHT22;2975;50.956;6.962;2023-12-20T09:12:48;7.60;99.90
5899;DHT22;2975;50.956;6.962;2023-12-20T09:15:13;7.60;99.90
5899;DHT22;2975;50.956;6.962;2023-12-20T09:17:39;7.50;99.90
5899;DHT22;2975;50.956;6.962;2023-12-20T09:20:07;7.50;99.90
5899;DHT22;2975;50.956;6.962;2023-12-20T09:22:33;7.50;99.90
5899;DHT22;2975;50.956;6.962;2023-12-20T09:24:59;7.50;99.90
5899;DHT22;2975;50.956;6.962;2023-12-20T09:27:25;7.50;99.90
5899;DHT22;2975;50.956;6.962;2023-12-20T09:29:51;7.60;99.90
5899;DHT22;2975;50.956;6.962;2023-12-20T09:32:18;7.60;99.90
5899;DHT22;2975;50.956;6.962;2023-12-20T09:34:46;7.60;99.90
5899;DHT22;2975;50.956;6.962;2023-12-20T09:37:11;7.60;99.90
5899;DHT22;2975;50.956;6.962;2023-12-20T09:39:37;7.70;99.90
5899;DHT22;2975;50.956;6.962;2023-12-20T09:42:04;7.80;99.90
5899;DHT22;2975;50.956;6.962;2023-12-20T09:44:30;7.80;99.90
5899;DHT22;2975;50.956;6.962;2023-12-20T09:46:56;7.90;99.90
5899;DHT22;2975;50.956;6.962;2023-12-20T09:49:22;7.90;99.90
5899;DHT22;2975;50.956;6.962;2023-12-20T09:51:50;8.00;99.90
5899;DHT22;2975;50.956;6.962;2023-12-20T09:54:19;8.00;99.90
5899;DHT22;2975;50.956;6.962;2023-12-20T09:56:45;8.00;99.90
5899;DHT22;2975;50.956;6.962;2023-12-20T09:59:11;8.00;99.90
5899;DHT22;2975;50.956;6.962;2023-12-20T10:01:39;8.00;99.90
5899;DHT22;2975;50.956;6.962;2023-12-20T10:04:06;8.00;99.90
5899;DHT22;2975;50.956;6.962;2023-12-20T10:06:39;8.00;99.90
5899;DHT22;2975;50.956;6.962;2023-12-20T10:09:04;8.00;99.90
5899;DHT22;2975;50.956;6.962;2023-12-20T10:11:31;8.00;99.90
5899;DHT22;2975;50.956;6.962;2023-12-20T10:14:00;8.00;99.90
5899;DHT22;2975;50.956;6.962;2023-12-20T10:16:29;7.90;99.90
5899;DHT22;2975;50.956;6.962;2023-12-20T10:18:55;8.00;99.90
5899;DHT22;2975;50.956;6.962;2023-12-20T10:21:22;8.00;99.90
5899;DHT22;2975;50.956;6.962;2023-12-20T10:23:48;8.00;99.90
5899;DHT22;2975;50.956;6.962;2023-12-20T10:26:22;8.00;99.90
5899;DHT22;2975;50.956;6.962;2023-12-20T10:28:53;8.10;99.90
5899;DHT22;2975;50.956;6.962;2023-12-20T10:31:45;8.10;99.90
5899;DHT22;2975;50.956;6.962;2023-12-20T10:34:11;8.10;99.90
5899;DHT22;2975;50.956;6.962;2023-12-20T10:36:36;8.20;99.90
5899;DHT22;2975;50.956;6.962;2023-12-20T10:39:02;8.20;99.90
5899;DHT22;2975;50.956;6.962;2023-12-20T10:41:30;8.20;99.90
5899;DHT22;2975;50.956;6.962;2023-12-20T10:44:00;8.10;99.90
5899;DHT22;2975;50.956;6.962;2023-12-20T10:46:27;8.20;99.90
5899;DHT22;2975;50.956;6.962;2023-12-20T10:48:54;8.20;99.90
5899;DHT22;2975;50.956;6.962;2023-12-20T10:51:21;8.20;99.90
5899;DHT22;2975;50.956;6.962;2023-12-20T10:53:48;8.30;99.90
5899;DHT22;2975;50.956;6.962;2023-12-20T10:56:17;8.20;99.90
5899;DHT22;2975;50.956;6.962;2023-12-20T10:58:49;8.20;99.90
5899;DHT22;2975;50.956;6.962;2023-12-20T11:01:17;8.20;99.90
5899;DHT22;2975;50.956;6.962;2023-12-20T11:03:48;8.10;99.90
5899;DHT22;2975;50.956;6.962;2023-12-20T11:08:54;8.10;99.90
5899;DHT22;2975;50.956;6.962;2023-12-20T11:11:29;8.10;99.90
5899;DHT22;2975;50.956;6.962;2023-12-20T11:14:03;8.00;99.90
5899;DHT22;2975;50.956;6.962;2023-12-20T11:16:37;8.00;99.90
5899;DHT22;2975;50.956;6.962;2023-12-20T11:19:05;8.10;99.90
5899;DHT22;2975;50.956;6.962;2023-12-20T11:21:31;8.10;99.90
5899;DHT22;2975;50.956;6.962;2023-12-20T11:23:57;8.10;99.90
5899;DHT22;2975;50.956;6.962;2023-12-20T11:26:26;8.10;99.90
5899;DHT22;2975;50.956;6.962;2023-12-20T11:28:53;8.20;99.90
5899;DHT22;2975;50.956;6.962;2023-12-20T11:31:19;8.10;99.90
5899;DHT22;2975;50.956;6.962;2023-12-20T11:33:46;8.10;99.90
5899;DHT22;2975;50.956;6.962;2023-12-20T11:36:18;8.10;99.90
5899;DHT22;2975;50.956;6.962;2023-12-20T11:38:56;8.10;99.90
5899;DHT22;2975;50.956;6.962;2023-12-20T11:41:23;8.20;99.90
5899;DHT22;2975;50.956;6.962;2023-12-20T11:43:55;8.30;99.90
5899;DHT22;2975;50.956;6.962;2023-12-20T11:46:22;8.50;99.90
5899;DHT22;2975;50.956;6.962;2023-12-20T11:48:48;8.50;99.90
5899;DHT22;2975;50.956;6.962;2023-12-20T11:51:14;8.60;99.90
5899;DHT22;2975;50.956;6.962;2023-12-20T11:53:42;8.50;99.90
5899;DHT22;2975;50.956;6.962;2023-12-20T11:56:08;8.50;99.90
5899;DHT22;2975;50.956;6.962;2023-12-20T11:58:34;8.50;99.90
5899;DHT22;2975;50.956;6.962;2023-12-20T12:01:01;8.50;99.90
5899;DHT22;2975;50.956;6.962;2023-12-20T12:03:29;8.50;99.90
5899;DHT22;2975;50.956;6.962;2023-12-20T12:05:55;8.50;99.90
5899;DHT22;2975;50.956;6.962;2023-12-20T12:08:21;8.40;99.90
5899;DHT22;2975;50.956;6.962;2023-12-20T12:10:47;8.40;99.90
5899;DHT22;2975;50.956;6.962;2023-12-20T12:13:12;8.40;99.90
5899;DHT22;2975;50.956;6.962;2023-12-20T12:15:39;8.40;99.90
5899;DHT22;2975;50.956;6.962;2023-12-20T12:18:05;8.40;99.90
5899;DHT22;2975;50.956;6.962;2023-12-20T12:20:31;8.30;99.90
5899;DHT22;2975;50.956;6.962;2023-12-20T12:23:01;8.30;99.90
5899;DHT22;2975;50.956;6.962;2023-12-20T12:25:28;8.30;99.90
5899;DHT22;2975;50.956;6.962;2023-12-20T12:27:55;8.30;99.90
5899;DHT22;2975;50.956;6.962;2023-12-20T12:30:21;8.20;99.90
5899;DHT22;2975;50.956;6.962;2023-12-20T12:32:47;8.20;99.90
5899;DHT22;2975;50.956;6.962;2023-12-20T12:35:13;8.30;99.90
5899;DHT22;2975;50.956;6.962;2023-12-20T12:37:40;8.20;99.90
5899;DHT22;2975;50.956;6.962;2023-12-20T12:40:07;8.30;99.90
5899;DHT22;2975;50.956;6.962;2023-12-20T12:42:36;8.30;99.90
5899;DHT22;2975;50.956;6.962;2023-12-20T12:45:01;8.30;99.90
5899;DHT22;2975;50.956;6.962;2023-12-20T12:47:27;8.30;99.90
5899;DHT22;2975;50.956;6.962;2023-12-20T12:49:53;8.30;99.90
5899;DHT22;2975;50.956;6.962;2023-12-20T12:52:19;8.30;99.90
5899;DHT22;2975;50.956;6.962;2023-12-20T12:54:44;8.40;99.90
5899;DHT22;2975;50.956;6.962;2023-12-20T12:57:11;8.40;99.90
5899;DHT22;2975;50.956;6.962;2023-12-20T12:59:37;8.40;99.90
5899;DHT22;2975;50.956;6.962;2023-12-20T13:02:02;8.40;99.90
5899;DHT22;2975;50.956;6.962;2023-12-20T13:04:28;8.40;99.90
5899;DHT22;2975;50.956;6.962;2023-12-20T13:06:53;8.40;99.90
5899;DHT22;2975;50.956;6.962;2023-12-20T13:09:19;8.40;99.90
5899;DHT22;2975;50.956;6.962;2023-12-20T13:11:45;8.40;99.90
5899;DHT22;2975;50.956;6.962;2023-12-20T13:14:11;8.40;99.90
5899;DHT22;2975;50.956;6.962;2023-12-20T13:16:41;8.50;99.90
5899;DHT22;2975;50.956;6.962;2023-12-20T13:19:07;8.50;99.90
5899;DHT22;2975;50.956;6.962;2023-12-20T13:21:32;8.60;99.90
5899;DHT22;2975;50.956;6.962;2023-12-20T13:23:58;8.60;99.90
5899;DHT22;2975;50.956;6.962;2023-12-20T13:26:23;8.60;99.90
5899;DHT22;2975;50.956;6.962;2023-12-20T13:28:49;8.70;99.90
5899;DHT22;2975;50.956;6.962;2023-12-20T13:31:15;8.70;99.90
5899;DHT22;2975;50.956;6.962;2023-12-20T13:33:40;8.80;99.90
5899;DHT22;2975;50.956;6.962;2023-12-20T13:36:06;8.80;99.90
5899;DHT22;2975;50.956;6.962;2023-12-20T13:38:32;8.80;99.90
5899;DHT22;2975;50.956;6.962;2023-12-20T13:40:59;8.80;99.90
5899;DHT22;2975;50.956;6.962;2023-12-20T13:43:24;8.80;99.90
5899;DHT22;2975;50.956;6.962;2023-12-20T13:45:50;8.80;99.90
5899;DHT22;2975;50.956;6.962;2023-12-20T13:48:16;8.70;99.90
5899;DHT22;2975;50.956;6.962;2023-12-20T13:50:42;8.60;99.90
5899;DHT22;2975;50.956;6.962;2023-12-20T13:53:08;8.60;99.90
5899;DHT22;2975;50.956;6.962;2023-12-20T13:55:33;8.60;99.90
5899;DHT22;2975;50.956;6.962;2023-12-20T13:57:59;8.60;99.90
5899;DHT22;2975;50.956;6.962;2023-12-20T14:00:24;8.60;99.90
5899;DHT22;2975;50.956;6.962;2023-12-20T14:02:50;8.60;99.90
5899;DHT22;2975;50.956;6.962;2023-12-20T14:05:16;8.60;99.90
5899;DHT22;2975;50.956;6.962;2023-12-20T14:07:45;8.50;99.90
5899;DHT22;2975;50.956;6.962;2023-12-20T14:10:12;8.50;99.90
5899;DHT22;2975;50.956;6.962;2023-12-20T14:12:38;8.50;99.90
5899;DHT22;2975;50.956;6.962;2023-12-20T14:15:05;8.50;99.90
5899;DHT22;2975;50.956;6.962;2023-12-20T14:17:34;8.50;99.90
5899;DHT22;2975;50.956;6.962;2023-12-20T14:20:00;8.50;99.90
5899;DHT22;2975;50.956;6.962;2023-12-20T14:22:26;8.50;99.90
5899;DHT22;2975;50.956;6.962;2023-12-20T14:24:51;8.50;99.90
5899;DHT22;2975;50.956;6.962;2023-12-20T14:27:17;8.50;99.90
5899;DHT22;2975;50.956;6.962;2023-12-20T14:29:43;8.50;99.90
5899;DHT22;2975;50.956;6.962;2023-12-20T14:32:08;8.50;99.90
5899;DHT22;2975;50.956;6.962;2023-12-20T14:34:34;8.50;99.90
5899;DHT22;2975;50.956;6.962;2023-12-20T14:36:59;8.50;99.90
5899;DHT22;2975;50.956;6.962;2023-12-20T14:39:25;8.50;99.90
5899;DHT22;2975;50.956;6.962;2023-12-20T14:41:51;8.50;99.90
5899;DHT22;2975;50.956;6.962;2023-12-20T14:44:16;8.50;99.90
5899;DHT22;2975;50.956;6.962;2023-12-20T14:46:43;8.60;99.90
5899;DHT22;2975;50.956;6.962;2023-12-20T14:49:08;8.60;99.90
5899;DHT22;2975;50.956;6.962;2023-12-20T14:51:34;8.60;99.90
5899;DHT22;2975;50.956;6.962;2023-12-20T14:54:01;8.60;99.90
5899;DHT22;2975;50.956;6.962;2023-12-20T14:56:26;8.60;99.90
5899;DHT22;2975;50.956;6.962;2023-12-20T14:58:52;8.60;99.90
5899;DHT22;2975;50.956;6.962;2023-12-20T15:01:18;8.60;99.90
5899;DHT22;2975;50.956;6.962;2023-12-20T15:03:47;8.60;99.90
5899;DHT22;2975;50.956;6.962;2023-12-20T15:06:12;8.60;99.90
5899;DHT22;2975;50.956;6.962;2023-12-20T15:08:38;8.60;99.90
5899;DHT22;2975;50.956;6.962;2023-12-20T15:11:04;8.60;99.90
5899;DHT22;2975;50.956;6.962;2023-12-20T15:13:29;8.60;99.90
5899;DHT22;2975;50.956;6.962;2023-12-20T15:15:56;8.60;99.90
5899;DHT22;2975;50.956;6.962;2023-12-20T15:18:22;8.60;99.90
5899;DHT22;2975;50.956;6.962;2023-12-20T15:20:47;8.60;99.90
5899;DHT22;2975;50.956;6.962;2023-12-20T15:23:13;8.60;99.90
5899;DHT22;2975;50.956;6.962;2023-12-20T15:25:39;8.50;99.90
5899;DHT22;2975;50.956;6.962;2023-12-20T15:28:04;8.50;99.90
5899;DHT22;2975;50.956;6.962;2023-12-20T15:30:30;8.50;99.90
5899;DHT22;2975;50.956;6.962;2023-12-20T15:32:56;8.50;99.90
5899;DHT22;2975;50.956;6.962;2023-12-20T15:35:22;8.50;99.90
5899;DHT22;2975;50.956;6.962;2023-12-20T15:37:48;8.50;99.90
5899;DHT22;2975;50.956;6.962;2023-12-20T15:40:13;8.50;99.90
5899;DHT22;2975;50.956;6.962;2023-12-20T15:42:39;8.40;99.90
5899;DHT22;2975;50.956;6.962;2023-12-20T15:45:06;8.50;99.90
5899;DHT22;2975;50.956;6.962;2023-12-20T15:47:34;8.40;99.90
5899;DHT22;2975;50.956;6.962;2023-12-20T15:50:01;8.50;99.90
5899;DHT22;2975;50.956;6.962;2023-12-20T15:52:27;8.40;99.90
5899;DHT22;2975;50.956;6.962;2023-12-20T15:54:52;8.40;99.90
5899;DHT22;2975;50.956;6.962;2023-12-20T15:57:18;8.40;99.90
5899;DHT22;2975;50.956;6.962;2023-12-20T15:59:44;8.40;99.90
5899;DHT22;2975;50.956;6.962;2023-12-20T16:02:10;8.40;99.90
5899;DHT22;2975;50.956;6.962;2023-12-20T16:04:35;8.50;99.90
5899;DHT22;2975;50.956;6.962;2023-12-20T16:07:01;8.40;99.90
5899;DHT22;2975;50.956;6.962;2023-12-20T16:09:27;8.40;99.90
5899;DHT22;2975;50.956;6.962;2023-12-20T16:11:52;8.40;99.90
5899;DHT22;2975;50.956;6.962;2023-12-20T16:14:18;8.40;99.90
5899;DHT22;2975;50.956;6.962;2023-12-20T16:16:46;8.40;99.90
5899;DHT22;2975;50.956;6.962;2023-12-20T16:19:11;8.40;99.90
5899;DHT22;2975;50.956;6.962;2023-12-20T16:21:37;8.40;99.90